Time;durP1;ratioP1;P1;durP2;ratioP2;P2;SDS_P1;SDS_P2;PMS_P1;PMS_P2;Temp;Humidity;BMP_temperature;BMP_pressure;BME280_temperature;BME280_humidity;BME280_pressure;Samples;Min_cycle;Max_cycle;Signal;HPM_P1;HPM_P2
2023/03/04 00:02:18;;;;;;;23.62;8.00;;;;;;;3.39;66.54;98888.86;1706235;82;21106;-71
2023/03/04 00:04:45;;;;;;;16.23;7.65;;;;;;;3.41;66.62;98898.67;1705476;82;21125;-65
2023/03/04 00:07:15;;;;;;;18.67;7.03;;;;;;;3.44;67.35;98893.86;1707008;81;21091;-69
2023/03/04 00:09:40;;;;;;;16.60;6.70;;;;;;;3.46;66.99;98881.76;1763426;79;21073;-71
2023/03/04 00:12:07;;;;;;;16.65;7.25;;;;;;;3.47;66.93;98884.73;1762495;79;20958;-71
2023/03/04 00:14:33;;;;;;;15.00;6.75;;;;;;;3.48;67.06;98885.14;1761911;79;21013;-70
2023/03/04 00:17:03;;;;;;;18.32;7.40;;;;;;;3.49;67.19;98886.82;1761583;79;20995;-71
2023/03/04 00:19:29;;;;;;;19.60;7.65;;;;;;;3.50;67.26;98892.38;1764636;79;21505;-70
2023/03/04 00:21:56;;;;;;;16.05;7.20;;;;;;;3.52;67.26;98873.81;1759833;79;21065;-71
2023/03/04 00:24:23;;;;;;;20.20;7.28;;;;;;;3.52;67.35;98882.85;1767041;79;21077;-71
2023/03/04 00:26:50;;;;;;;15.53;6.45;;;;;;;3.53;67.51;98881.98;1764542;79;21513;-64
2023/03/04 00:29:17;;;;;;;19.90;7.20;;;;;;;3.55;67.52;98878.88;1771226;79;21497;-71
2023/03/04 00:31:43;;;;;;;14.93;6.47;;;;;;;3.56;67.74;98879.30;1765340;79;21025;-69
2023/03/04 00:34:10;;;;;;;17.10;6.58;;;;;;;3.58;67.88;98883.94;1765096;79;21090;-69
2023/03/04 00:36:37;;;;;;;12.55;6.30;;;;;;;3.63;68.00;98884.64;1762838;79;20947;-71
2023/03/04 00:39:03;;;;;;;21.52;6.75;;;;;;;3.64;67.86;98877.31;1760300;79;21101;-66
2023/03/04 00:41:30;;;;;;;22.20;7.28;;;;;;;3.65;67.88;98871.24;1764136;79;21078;-71
2023/03/04 00:43:56;;;;;;;15.58;6.28;;;;;;;3.66;68.09;98862.59;1765332;79;21278;-71
2023/03/04 00:46:23;;;;;;;17.70;6.60;;;;;;;3.71;68.13;98871.03;1770348;79;21003;-66
2023/03/04 00:48:51;;;;;;;22.87;6.92;;;;;;;3.71;67.99;98869.74;1761778;79;21053;-69
2023/03/04 00:51:17;;;;;;;20.20;6.85;;;;;;;3.72;67.98;98857.22;1764126;79;21038;-71
2023/03/04 00:53:44;;;;;;;20.52;6.05;;;;;;;3.72;68.11;98859.80;1762213;79;21038;-71
2023/03/04 00:56:10;;;;;;;15.35;5.42;;;;;;;3.73;68.14;98862.80;1766960;79;21077;-71
2023/03/04 00:58:38;;;;;;;17.00;6.22;;;;;;;3.73;68.27;98856.34;1762423;79;21094;-71
2023/03/04 01:01:05;;;;;;;18.60;6.08;;;;;;;3.72;68.19;98857.22;1766782;79;21004;-70
2023/03/04 01:03:33;;;;;;;21.05;6.75;;;;;;;3.71;68.34;98862.45;1766597;79;21533;-71
2023/03/04 01:06:00;;;;;;;20.05;5.70;;;;;;;3.68;68.52;98860.81;1766328;79;21573;-71
2023/03/04 01:08:27;;;;;;;20.08;6.42;;;;;;;3.71;68.53;98858.13;1767285;79;21066;-69
2023/03/04 01:10:54;;;;;;;20.30;5.80;;;;;;;3.73;68.55;98851.19;1765744;79;21509;-67
2023/03/04 01:13:20;;;;;;;14.30;5.35;;;;;;;3.74;68.42;98855.44;1769559;79;20972;-70
2023/03/04 01:15:47;;;;;;;16.75;5.62;;;;;;;3.75;68.52;98859.73;1766093;79;21053;-70
2023/03/04 01:18:13;;;;;;;18.00;4.97;;;;;;;3.74;68.56;98852.86;1762194;79;20947;-65
2023/03/04 01:20:40;;;;;;;17.70;5.55;;;;;;;3.75;68.62;98846.82;1761788;79;21427;-72
2023/03/04 01:23:07;;;;;;;17.25;5.22;;;;;;;3.78;68.76;98846.71;1770537;79;21555;-71
2023/03/04 01:25:33;;;;;;;17.05;5.53;;;;;;;3.79;68.78;98840.64;1760352;79;21044;-67
2023/03/04 01:28:00;;;;;;;16.35;4.65;;;;;;;3.83;68.85;98848.28;1766154;79;21093;-66
2023/03/04 01:30:26;;;;;;;16.65;4.67;;;;;;;3.85;68.85;98841.33;1764082;79;21008;-68
2023/03/04 01:32:53;;;;;;;13.65;4.58;;;;;;;3.85;68.94;98840.05;1761686;79;21089;-66
2023/03/04 01:35:19;;;;;;;14.85;4.55;;;;;;;3.84;69.11;98837.05;1764137;79;21053;-70
2023/03/04 01:37:46;;;;;;;15.32;4.83;;;;;;;3.83;69.09;98841.83;1771013;79;20982;-71
2023/03/04 01:40:13;;;;;;;14.93;5.55;;;;;;;3.80;69.02;98838.44;1765056;79;21135;-68
2023/03/04 01:42:41;;;;;;;16.02;4.62;;;;;;;3.79;69.08;98835.48;1775671;79;21489;-71
2023/03/04 01:45:14;;;;;;;14.55;4.83;;;;;;;3.76;69.08;98835.59;1733219;81;20949;-66
2023/03/04 01:47:47;;;;;;;11.57;4.08;;;;;;;3.73;69.16;98828.39;1725676;82;21023;-71
2023/03/04 01:50:29;;;;;;;11.78;4.53;;;;;;;3.70;69.22;98830.63;1725014;81;21022;-63
2023/03/04 01:52:56;;;;;;;15.05;4.70;;;;;;;3.68;69.26;98822.09;1727121;81;20947;-62
2023/03/04 01:55:23;;;;;;;14.70;4.00;;;;;;;3.67;69.32;98822.13;1721626;81;21013;-71
2023/03/04 01:57:52;;;;;;;20.23;4.25;;;;;;;3.63;69.26;98818.81;1723594;82;21074;-70
2023/03/04 02:00:24;;;;;;;14.10;3.42;;;;;;;3.57;69.24;98817.28;1725613;82;21057;-71
2023/03/04 02:02:56;;;;;;;21.07;4.47;;;;;;;3.51;69.36;98816.65;1725885;81;21042;-72
2023/03/04 02:05:23;;;;;;;19.87;4.87;;;;;;;3.48;69.60;98827.91;1723361;81;20994;-72
2023/03/04 02:07:52;;;;;;;12.28;3.77;;;;;;;3.49;69.63;98824.88;1737092;81;21020;-66
2023/03/04 02:10:20;;;;;;;15.98;3.52;;;;;;;3.49;69.64;98823.59;1737443;82;21551;-71
2023/03/04 02:12:47;;;;;;;16.50;4.12;;;;;;;3.48;69.60;98807.27;1724547;82;20994;-65
2023/03/04 02:15:14;;;;;;;14.25;4.37;;;;;;;3.45;69.71;98806.53;1710473;82;21078;-69
2023/03/04 02:17:40;;;;;;;16.55;4.22;;;;;;;3.41;69.63;98803.64;1735953;80;21069;-71
2023/03/04 02:20:16;;;;;;;18.67;4.50;;;;;;;3.36;69.75;98802.48;1733265;81;20974;-69
2023/03/04 02:22:51;;;;;;;16.32;3.92;;;;;;;3.30;69.73;98806.11;1739352;80;20959;-72
2023/03/04 02:25:21;;;;;;;14.18;3.75;;;;;;;3.27;69.84;98804.09;1740924;80;21046;-71
2023/03/04 02:27:48;;;;;;;17.57;4.00;;;;;;;3.22;69.94;98813.28;1738790;80;20998;-72
2023/03/04 02:30:19;;;;;;;15.43;4.45;;;;;;;3.21;70.07;98794.81;1711106;82;21085;-71
2023/03/04 02:32:45;;;;;;;20.52;4.22;;;;;;;3.21;70.00;98805.58;1740221;80;20967;-71
2023/03/04 02:35:16;;;;;;;17.92;3.67;;;;;;;3.16;70.08;98804.87;1715788;82;21072;-72
2023/03/04 02:37:43;;;;;;;12.47;4.20;;;;;;;3.14;70.25;98804.94;1741217;80;21050;-71
2023/03/04 02:40:21;;;;;;;18.07;3.83;;;;;;;3.10;70.28;98811.08;1739794;80;21109;-72
2023/03/04 02:42:48;;;;;;;13.28;3.30;;;;;;;3.07;70.34;98808.59;1739117;80;20971;-71
2023/03/04 02:45:46;;;;;;;13.68;3.60;;;;;;;3.08;70.50;98802.53;1737695;80;21134;-64
2023/03/04 02:48:17;;;;;;;16.45;3.40;;;;;;;3.08;70.47;98799.95;1730083;81;20991;-71
2023/03/04 02:50:51;;;;;;;21.20;4.08;;;;;;;3.07;70.54;98800.86;1720303;81;21030;-69
2023/03/04 02:53:19;;;;;;;25.65;4.60;;;;;;;3.08;70.57;98802.53;1738438;81;21031;-71
2023/03/04 02:55:47;;;;;;;15.80;3.52;;;;;;;3.10;70.66;98802.88;1730180;81;21532;-71
2023/03/04 02:58:14;;;;;;;18.20;3.90;;;;;;;3.11;70.76;98800.72;1726159;81;20974;-71
2023/03/04 03:00:41;;;;;;;15.72;3.90;;;;;;;3.11;70.78;98808.91;1715579;81;20995;-71
2023/03/04 03:03:08;;;;;;;19.82;4.53;;;;;;;3.10;70.78;98804.63;1731635;82;20971;-72
2023/03/04 03:05:37;;;;;;;19.40;3.72;;;;;;;3.09;70.93;98791.34;1743140;80;21020;-71
2023/03/04 03:08:05;;;;;;;12.05;3.50;;;;;;;3.07;70.98;98798.28;1741226;80;21103;-70
2023/03/04 03:10:31;;;;;;;;;;;;;;;3.09;70.95;98801.66;1787697;79;21073;-71
2023/03/04 03:12:57;;;;;;;14.68;3.90;;;;;;;3.05;71.08;98800.05;1778470;79;20388;-71
2023/03/04 03:15:24;;;;;;;12.45;3.25;;;;;;;3.02;71.13;98792.41;1782052;79;21429;-69
2023/03/04 03:17:52;;;;;;;19.52;3.67;;;;;;;2.99;71.21;98783.03;1782941;79;21421;-72
2023/03/04 03:20:19;;;;;;;21.37;4.12;;;;;;;2.98;71.29;98785.68;1779616;78;21046;-71
2023/03/04 03:22:46;;;;;;;19.80;3.83;;;;;;;2.96;71.25;98796.03;1777994;78;20990;-71
2023/03/04 03:25:15;;;;;;;13.55;3.85;;;;;;;2.93;71.32;98795.29;1782997;78;20974;-70
2023/03/04 03:27:42;;;;;;;18.80;3.42;;;;;;;2.90;71.35;98791.91;1778513;79;20934;-66
2023/03/04 03:30:13;;;;;;;18.82;3.50;;;;;;;2.85;71.40;98791.20;1781697;79;20982;-70
2023/03/04 03:32:39;;;;;;;13.30;3.17;;;;;;;2.83;71.51;98796.87;1737941;81;21058;-72
2023/03/04 03:35:07;;;;;;;13.88;4.00;;;;;;;2.81;71.56;98797.35;1777200;79;21013;-67
2023/03/04 03:37:34;;;;;;;15.75;3.92;;;;;;;2.77;71.43;98798.32;1775301;79;21021;-72
2023/03/04 03:40:00;;;;;;;12.13;3.50;;;;;;;2.70;71.53;98789.10;1783625;78;21144;-71
2023/03/04 03:42:27;;;;;;;9.60;2.47;;;;;;;2.60;71.62;98785.10;1784172;78;21082;-64
2023/03/04 03:44:54;;;;;;;12.00;3.37;;;;;;;2.60;71.62;98785.10;1779648;79;21503;-67
2023/03/04 03:47:22;;;;;;;16.97;3.40;;;;;;;2.57;71.73;98790.35;1786631;79;20895;-71
2023/03/04 03:49:48;;;;;;;11.33;2.93;;;;;;;2.53;71.67;98788.77;1785193;79;20938;-71
2023/03/04 03:52:15;;;;;;;12.63;2.70;;;;;;;2.46;71.73;98781.23;1779681;78;21058;-69
2023/03/04 03:54:42;;;;;;;14.90;3.33;;;;;;;2.42;71.81;98783.48;1783856;78;21093;-61
2023/03/04 03:57:08;;;;;;;12.50;3.05;;;;;;;2.37;71.83;98781.47;1740660;81;21405;-72
2023/03/04 03:59:36;;;;;;;14.90;3.42;;;;;;;2.33;71.84;98783.75;1786488;78;21022;-66
2023/03/04 04:02:02;;;;;;;14.13;2.58;;;;;;;2.29;71.81;98788.57;1780639;78;21014;-64
2023/03/04 04:04:29;;;;;;;11.45;2.72;;;;;;;2.24;71.85;98787.86;1778666;79;21191;-71
2023/03/04 04:06:55;;;;;;;12.05;2.83;;;;;;;2.21;71.93;98786.66;1780200;79;20934;-69
2023/03/04 04:09:22;;;;;;;10.38;3.10;;;;;;;2.16;71.85;98793.25;1761248;79;21546;-70
2023/03/04 04:11:49;;;;;;;14.20;2.95;;;;;;;2.13;71.97;98784.73;1768943;79;21081;-70
2023/03/04 04:14:15;;;;;;;17.07;3.35;;;;;;;2.08;71.89;98786.63;1769592;79;21015;-71
2023/03/04 04:16:42;;;;;;;16.17;3.60;;;;;;;2.03;72.05;98791.05;1721226;81;21026;-71
2023/03/04 04:19:18;;;;;;;12.82;3.47;;;;;;;1.99;72.02;98789.85;1733584;81;21154;-71
2023/03/04 04:21:45;;;;;;;17.45;3.52;;;;;;;1.94;71.98;98790.41;1765951;79;21033;-72
2023/03/04 04:24:13;;;;;;;12.90;2.92;;;;;;;1.91;72.01;98793.52;1759230;79;21636;-62
2023/03/04 04:26:40;;;;;;;11.75;3.05;;;;;;;1.87;72.19;98794.02;1763236;79;21037;-68
2023/03/04 04:29:07;;;;;;;;;;;;;;;1.86;72.17;98792.34;1770830;79;21008;-71
2023/03/04 04:31:35;;;;;;;14.70;2.62;;;;;;;1.84;72.36;98790.25;1764349;79;20168;-71
2023/03/04 04:34:01;;;;;;;7.53;2.50;;;;;;;1.79;72.26;98790.81;1767598;79;21049;-67
2023/03/04 04:36:28;;;;;;;15.10;3.62;;;;;;;1.75;72.41;98786.64;1762448;79;21047;-72
2023/03/04 04:38:56;;;;;;;9.25;2.80;;;;;;;1.74;72.40;98784.97;1761252;79;21110;-65
2023/03/04 04:41:28;;;;;;;11.50;3.20;;;;;;;1.74;72.51;98783.68;1752142;80;21052;-72
2023/03/04 04:43:54;;;;;;;16.20;3.08;;;;;;;1.76;72.67;98785.33;1769429;79;21100;-63
2023/03/04 04:46:21;;;;;;;11.75;3.02;;;;;;;1.79;72.71;98781.38;1769323;79;21026;-72
2023/03/04 04:48:52;;;;;;;10.55;3.17;;;;;;;1.83;72.62;98785.16;1762343;79;21736;-71
2023/03/04 04:51:19;;;;;;;8.80;2.60;;;;;;;1.88;72.71;98780.29;1762654;79;21806;-71
2023/03/04 04:53:46;;;;;;;16.87;3.62;;;;;;;1.96;72.66;98783.50;1765699;79;20978;-65
2023/03/04 04:56:20;;;;;;;9.93;2.12;;;;;;;1.97;72.67;98779.19;1762492;79;20927;-71
2023/03/04 04:58:47;;;;;;;9.85;2.70;;;;;;;2.00;72.73;98782.52;1772908;79;20992;-70
2023/03/04 05:01:14;;;;;;;;;;;;;;;2.04;72.58;98776.83;1770741;79;21504;-70
2023/03/04 05:03:41;;;;;;;13.03;2.70;;;;;;;2.10;72.78;98779.67;1761650;79;20142;-67
2023/03/04 05:06:10;;;;;;;14.50;3.20;;;;;;;2.12;72.76;98777.91;1753941;79;20943;-71
2023/03/04 05:08:38;;;;;;;8.73;2.45;;;;;;;2.16;72.74;98769.23;1739986;81;21044;-71
2023/03/04 05:11:06;;;;;;;6.60;2.55;;;;;;;2.17;72.67;98769.62;1782424;78;21093;-70
2023/03/04 05:13:33;;;;;;;8.95;2.80;;;;;;;2.20;72.74;98759.23;1785011;79;21037;-72
2023/03/04 05:16:02;;;;;;;7.28;2.02;;;;;;;2.21;72.70;98764.77;1779063;78;21009;-63
2023/03/04 05:18:29;;;;;;;10.65;2.45;;;;;;;2.25;72.85;98763.80;1777104;79;21069;-71
2023/03/04 05:21:02;;;;;;;10.13;2.60;;;;;;;2.31;72.87;98766.20;1780971;79;21041;-71
2023/03/04 05:23:32;;;;;;;12.20;3.22;;;;;;;2.33;72.73;98763.14;1787827;79;21125;-69
2023/03/04 05:26:00;;;;;;;8.68;2.10;;;;;;;2.38;72.83;98758.70;1783247;78;20974;-69
2023/03/04 05:28:26;;;;;;;7.60;2.27;;;;;;;2.42;72.83;98769.30;1738819;80;20964;-66
2023/03/04 05:30:53;;;;;;;9.95;2.52;;;;;;;2.49;72.83;98771.70;1715560;82;20986;-72
2023/03/04 05:33:21;;;;;;;7.47;2.33;;;;;;;2.53;72.80;98765.58;1721626;81;21019;-59
2023/03/04 05:35:49;;;;;;;6.58;2.35;;;;;;;2.56;72.90;98771.47;1728103;81;20964;-69
2023/03/04 05:38:19;;;;;;;6.70;1.67;;;;;;;2.59;72.71;98763.65;1730516;81;20929;-71
2023/03/04 05:40:48;;;;;;;4.92;1.60;;;;;;;2.59;72.63;98778.27;1731584;81;21006;-70
2023/03/04 05:43:15;;;;;;;9.38;2.30;;;;;;;2.61;72.77;98774.77;1743285;80;21022;-71
2023/03/04 05:45:42;;;;;;;3.80;1.50;;;;;;;2.63;72.65;98779.85;1712636;82;21459;-72
2023/03/04 05:48:09;;;;;;;5.53;1.60;;;;;;;2.67;72.70;98776.31;1741698;80;21483;-71
2023/03/04 05:50:35;;;;;;;6.08;1.50;;;;;;;2.69;72.65;98779.70;1744324;80;20957;-72
2023/03/04 05:53:02;;;;;;;8.75;1.87;;;;;;;2.70;72.65;98778.80;1713563;82;21134;-71
2023/03/04 05:55:29;;;;;;;4.20;1.47;;;;;;;2.75;72.64;98779.95;1735590;80;21466;-69
2023/03/04 05:57:57;;;;;;;5.62;1.40;;;;;;;2.78;72.50;98783.72;1725163;81;21003;-72
2023/03/04 06:00:24;;;;;;;3.98;1.42;;;;;;;2.80;72.49;98786.66;1714325;82;20953;-71
2023/03/04 06:02:51;;;;;;;4.28;1.45;;;;;;;2.80;72.35;98789.23;1718712;82;21022;-71
2023/03/04 06:05:19;;;;;;;3.65;1.25;;;;;;;2.83;72.45;98782.69;1714888;82;21507;-68
2023/03/04 06:07:46;;;;;;;6.00;1.52;;;;;;;2.85;72.36;98786.04;1715492;82;21000;-64
2023/03/04 06:10:16;;;;;;;5.95;1.72;;;;;;;2.85;72.27;98788.63;1675291;83;21073;-69
2023/03/04 06:12:43;;;;;;;7.50;1.75;;;;;;;2.86;72.23;98785.17;1716348;81;20919;-72
2023/03/04 06:15:12;;;;;;;7.10;2.00;;;;;;;2.85;72.20;98787.33;1709424;82;21054;-71
2023/03/04 06:17:41;;;;;;;5.20;1.65;;;;;;;2.87;72.21;98779.11;1719766;82;22061;-72
2023/03/04 06:20:10;;;;;;;3.55;1.75;;;;;;;2.87;72.18;98794.58;1710825;82;20961;-69
2023/03/04 06:22:36;;;;;;;8.33;2.40;;;;;;;2.89;72.09;98788.11;1711949;81;20972;-71
2023/03/04 06:25:05;;;;;;;4.72;1.90;;;;;;;2.93;72.11;98797.87;1714515;82;21141;-72
2023/03/04 06:27:32;;;;;;;5.22;1.92;;;;;;;2.95;72.06;98799.52;1713051;81;20933;-63
2023/03/04 06:30:00;;;;;;;6.83;2.55;;;;;;;2.99;72.07;98797.67;1714443;82;20979;-71
2023/03/04 06:32:27;;;;;;;3.92;1.45;;;;;;;3.02;72.07;98797.57;1687514;83;21455;-68
2023/03/04 06:34:54;;;;;;;6.50;2.25;;;;;;;3.07;71.95;98793.12;1678913;83;21688;-69
2023/03/04 06:37:21;;;;;;;8.88;2.25;;;;;;;3.11;71.98;98794.72;1680364;82;20983;-71
2023/03/04 06:39:49;;;;;;;6.55;2.15;;;;;;;3.12;71.99;98786.09;1684854;83;21075;-71
2023/03/04 06:42:16;;;;;;;7.80;2.15;;;;;;;3.16;71.92;98790.23;1687498;83;21031;-71
2023/03/04 06:44:43;;;;;;;6.47;2.35;;;;;;;3.18;71.81;98785.05;1685135;82;21127;-72
2023/03/04 06:47:09;;;;;;;3.77;1.87;;;;;;;3.22;71.83;98792.64;1679675;83;21094;-72
2023/03/04 06:49:36;;;;;;;4.42;2.08;;;;;;;3.22;71.70;98787.48;1708468;82;21032;-70
2023/03/04 06:52:02;;;;;;;6.37;2.22;;;;;;;3.23;71.66;98789.16;1719627;82;21056;-71
2023/03/04 06:54:29;;;;;;;5.00;1.82;;;;;;;3.28;71.60;98797.60;1716660;82;21055;-69
2023/03/04 06:56:56;;;;;;;5.42;2.22;;;;;;;3.30;71.62;98794.50;1717861;82;21072;-69
2023/03/04 06:59:22;;;;;;;4.78;1.85;;;;;;;3.36;71.44;98800.78;1681214;83;21098;-72
2023/03/04 07:01:49;;;;;;;5.28;2.05;;;;;;;3.38;71.27;98799.88;1703720;82;21584;-71
2023/03/04 07:04:15;;;;;;;5.00;1.87;;;;;;;3.43;71.24;98803.98;1717034;81;21435;-70
2023/03/04 07:06:42;;;;;;;3.37;1.37;;;;;;;3.45;71.16;98801.38;1714262;82;21046;-72
2023/03/04 07:09:08;;;;;;;9.18;2.00;;;;;;;3.45;71.05;98803.95;1684532;82;21143;-71
2023/03/04 07:11:35;;;;;;;2.85;1.20;;;;;;;3.45;71.04;98805.24;1688051;83;21319;-69
2023/03/04 07:14:02;;;;;;;6.95;1.42;;;;;;;3.45;70.88;98809.11;1690211;83;21375;-73
2023/03/04 07:16:29;;;;;;;4.33;1.20;;;;;;;3.40;70.61;98813.58;1691507;83;21029;-70
2023/03/04 07:18:55;;;;;;;4.97;1.57;;;;;;;3.42;70.62;98807.89;1694112;83;21010;-67
2023/03/04 07:21:22;;;;;;;4.22;1.60;;;;;;;3.39;70.35;98819.19;1692832;83;20972;-67
2023/03/04 07:23:48;;;;;;;4.45;1.60;;;;;;;3.43;70.42;98823.80;1687336;83;21025;-64
2023/03/04 07:26:16;;;;;;;5.35;1.47;;;;;;;3.48;70.08;98825.78;1688033;83;21078;-67
2023/03/04 07:28:43;;;;;;;3.20;1.40;;;;;;;3.51;69.91;98829.55;1691928;83;20987;-69
2023/03/04 07:31:28;;;;;;;1.62;0.72;;;;;;;3.49;69.53;98824.88;1692167;83;21015;-64
2023/03/04 07:34:01;;;;;;;2.40;0.88;;;;;;;3.43;69.23;98817.34;1683193;83;20990;-62
2023/03/04 07:36:29;;;;;;;2.17;0.90;;;;;;;3.33;68.73;98835.72;1727310;80;20994;-69
2023/03/04 07:38:55;;;;;;;2.62;0.93;;;;;;;3.35;68.48;98831.78;1724800;81;20975;-69
2023/03/04 07:41:25;;;;;;;3.12;1.07;;;;;;;3.42;68.40;98829.83;1730450;80;21013;-69
2023/03/04 07:43:57;;;;;;;3.87;1.30;;;;;;;3.40;67.83;98832.48;1734190;81;21012;-61
2023/03/04 07:46:24;;;;;;;2.62;0.88;;;;;;;3.43;67.61;98836.70;1730159;82;21039;-68
2023/03/04 07:48:51;;;;;;;1.85;0.93;;;;;;;3.43;67.64;98843.16;1711633;81;21019;-63
2023/03/04 07:51:21;;;;;;;3.22;0.70;;;;;;;3.43;67.54;98844.44;1685453;83;21443;-65
2023/03/04 07:53:52;;;;;;;3.25;0.65;;;;;;;3.43;66.94;98836.70;1712499;81;20959;-69
2023/03/04 07:56:23;;;;;;;1.90;0.55;;;;;;;3.35;66.75;98837.77;1710728;79;21001;-63
2023/03/04 07:58:56;;;;;;;3.80;0.55;;;;;;;3.36;66.28;98842.06;1695174;82;21022;-68
2023/03/04 08:01:24;;;;;;;0.93;0.70;;;;;;;3.36;65.98;98839.48;1721261;80;20970;-63
2023/03/04 08:03:51;;;;;;;1.52;0.80;;;;;;;3.35;65.88;98840.36;1721770;81;20992;-66
2023/03/04 08:06:25;;;;;;;1.97;1.07;;;;;;;3.42;65.70;98840.16;1727825;81;21464;-67
2023/03/04 08:09:00;;;;;;;8.03;0.93;;;;;;;3.47;65.51;98840.86;1740064;79;21426;-69
2023/03/04 08:11:29;;;;;;;2.60;1.02;;;;;;;3.47;65.13;98834.40;1786598;78;21398;-68
2023/03/04 08:13:57;;;;;;;3.80;1.00;;;;;;;3.41;64.94;98826.41;1781146;79;20969;-68
2023/03/04 08:16:24;;;;;;;2.65;1.17;;;;;;;3.43;64.83;98831.53;1774931;79;21148;-68
2023/03/04 08:18:54;;;;;;;;;;;;;;;3.45;64.56;98838.80;1787031;79;20970;-68
2023/03/04 08:21:24;;;;;;;4.85;1.15;;;;;;;3.46;63.56;98826.27;1772609;79;20159;-67
2023/03/04 08:23:51;;;;;;;3.00;1.50;;;;;;;3.45;63.93;98834.92;1769357;79;20970;-63
2023/03/04 08:26:29;;;;;;;11.18;1.98;;;;;;;3.42;63.06;98829.83;1765275;79;21109;-69
2023/03/04 08:28:57;;;;;;;2.12;1.00;;;;;;;3.43;63.34;98834.12;1769073;78;22020;-69
2023/03/04 08:31:25;;;;;;;7.85;2.27;;;;;;;3.42;61.54;98837.57;1669180;84;21284;-68
2023/03/04 08:33:55;;;;;;;4.00;1.37;;;;;;;3.40;62.30;98844.55;1696684;82;21245;-69
2023/03/04 08:36:22;;;;;;;5.25;1.57;;;;;;;3.35;61.24;98836.48;1705797;82;20999;-69
2023/03/04 08:38:49;;;;;;;2.50;1.00;;;;;;;3.22;61.10;98822.31;1705898;82;21077;-69
2023/03/04 08:41:15;;;;;;;1.72;0.78;;;;;;;3.22;61.10;98822.31;1706482;82;21755;-69
2023/03/04 08:43:43;;;;;;;4.37;1.20;;;;;;;3.29;60.02;98843.14;1707224;81;20983;-69
2023/03/04 08:46:11;;;;;;;;;;;;;;;3.25;59.47;98844.56;1705110;82;21103;-68
2023/03/04 08:48:40;;;;;;;3.62;1.35;;;;;;;3.29;59.59;98861.20;1705389;82;20181;-69
2023/03/04 08:51:11;;;;;;;3.95;1.05;;;;;;;3.27;59.53;98859.11;1704657;82;20961;-69
2023/03/04 08:53:38;;;;;;;3.72;1.27;;;;;;;3.29;59.03;98866.36;1708896;82;21057;-67
2023/03/04 08:56:06;;;;;;;1.75;0.70;;;;;;;3.24;58.79;98863.07;1734107;81;21081;-68
2023/03/04 08:58:33;;;;;;;1.62;1.00;;;;;;;3.23;58.42;98858.81;1710833;82;21062;-58
2023/03/04 09:01:02;;;;;;;4.62;1.75;;;;;;;3.29;57.30;98866.36;1710661;82;21103;-69
2023/03/04 09:03:29;;;;;;;4.10;1.87;;;;;;;3.40;58.46;98862.61;1708014;82;21493;-69
2023/03/04 09:05:58;;;;;;;3.37;1.30;;;;;;;3.44;57.97;98866.77;1706137;80;21176;-62
2023/03/04 09:08:25;;;;;;;5.60;1.30;;;;;;;3.52;57.75;98864.78;1726020;81;21018;-68
2023/03/04 09:10:53;;;;;;;2.47;1.22;;;;;;;3.46;55.90;98867.56;1669971;83;21492;-68
2023/03/04 09:13:23;;;;;;;5.30;2.00;;;;;;;3.45;57.32;98873.63;1735827;80;20918;-65
2023/03/04 09:15:51;;;;;;;3.10;1.45;;;;;;;3.46;57.27;98883.05;1682571;84;21110;-68
2023/03/04 09:18:20;;;;;;;3.77;1.47;;;;;;;3.41;56.91;98877.19;1680797;84;21082;-69
2023/03/04 09:20:47;;;;;;;5.12;1.15;;;;;;;3.39;56.76;98891.86;1691685;82;21063;-65
2023/03/04 09:23:15;;;;;;;4.37;1.57;;;;;;;3.43;56.76;98888.31;1675896;84;21027;-68
2023/03/04 09:25:45;;;;;;;6.35;1.70;;;;;;;3.45;56.48;98889.95;1673024;84;21042;-69
2023/03/04 09:28:13;;;;;;;4.55;1.70;;;;;;;3.48;56.44;98886.44;1670322;84;21031;-68
2023/03/04 09:30:40;;;;;;;5.62;2.27;;;;;;;3.54;56.40;98886.23;1668828;84;21028;-69
2023/03/04 09:33:06;;;;;;;2.47;1.30;;;;;;;3.66;55.99;98895.31;1668473;84;20944;-69
2023/03/04 09:35:33;;;;;;;4.53;1.90;;;;;;;3.69;55.81;98911.54;1662510;84;21046;-69
2023/03/04 09:38:00;;;;;;;4.37;1.42;;;;;;;3.72;55.71;98898.53;1667286;84;21081;-69
2023/03/04 09:40:41;;;;;;;3.85;1.82;;;;;;;3.70;55.12;98897.76;1670153;84;20988;-70
2023/03/04 09:43:18;;;;;;;5.20;2.02;;;;;;;3.78;54.94;98893.19;1667264;84;21682;-68
2023/03/04 09:45:50;;;;;;;4.45;1.82;;;;;;;3.86;54.84;98898.53;1646785;85;21007;-67
2023/03/04 09:48:24;;;;;;;2.72;1.07;;;;;;;4.05;54.74;98911.23;1664571;84;21450;-64
2023/03/04 09:51:12;;;;;;;2.37;1.12;;;;;;;4.26;53.67;98904.50;1651509;84;21030;-63
2023/03/04 09:53:58;;;;;;;;;;;;;;;4.41;53.46;98904.41;1691267;83;21296;-70
2023/03/04 09:56:26;;;;;;;2.47;1.02;;;;;;;4.71;52.21;98917.53;1687884;83;20148;-67
2023/03/04 09:59:07;;;;;;;2.30;1.02;;;;;;;4.87;53.20;98907.48;1675814;83;21030;-68
2023/03/04 10:01:39;;;;;;;3.70;0.72;;;;;;;4.99;53.36;98910.05;1677320;84;21018;-66
2023/03/04 10:04:12;;;;;;;1.80;0.90;;;;;;;5.16;53.08;98912.84;1694245;82;20979;-65
2023/03/04 10:06:41;;;;;;;2.77;1.45;;;;;;;5.21;52.87;98900.16;1689555;83;21129;-66
2023/03/04 10:09:16;;;;;;;3.62;1.50;;;;;;;5.18;52.49;98913.23;1688020;82;21062;-67
2023/03/04 10:12:00;;;;;;;3.35;1.12;;;;;;;5.19;52.74;98914.93;1714409;82;21486;-68
2023/03/04 10:14:37;;;;;;;3.02;0.70;;;;;;;5.28;52.50;98913.27;1711110;82;21034;-66
2023/03/04 10:17:33;;;;;;;4.40;0.80;;;;;;;5.17;50.67;98913.68;1717652;82;21094;-69
2023/03/04 10:20:06;;;;;;;1.95;0.60;;;;;;;5.43;50.89;98923.48;1678545;83;21552;-66
2023/03/04 10:22:52;;;;;;;1.82;0.85;;;;;;;6.17;51.14;98930.46;1674048;84;21060;-64
2023/03/04 10:25:26;;;;;;;1.00;0.70;;;;;;;6.49;50.65;98923.43;1676333;83;22319;-68
2023/03/04 10:28:18;;;;;;;2.05;0.62;;;;;;;6.85;50.01;98911.05;1677680;83;20975;-62
2023/03/04 10:31:11;;;;;;;4.05;0.90;;;;;;;6.95;49.19;98925.77;1659067;84;21125;-63
2023/03/04 10:33:39;;;;;;;1.72;0.90;;;;;;;6.76;48.83;98922.31;1658967;84;22272;-66
2023/03/04 10:36:32;;;;;;;4.72;1.00;;;;;;;7.13;48.60;98921.48;1678554;83;21403;-70
2023/03/04 10:39:10;;;;;;;1.45;1.00;;;;;;;8.49;47.80;98917.94;1680462;83;21033;-68
2023/03/04 10:41:42;;;;;;;3.30;1.35;;;;;;;10.47;47.86;98922.17;1662115;84;21025;-71
2023/03/04 10:44:16;;;;;;;3.42;1.50;;;;;;;11.91;47.56;98898.42;1698229;82;21465;-66
2023/03/04 10:46:46;;;;;;;2.25;0.90;;;;;;;12.63;46.63;98897.03;1701784;82;21591;-66
2023/03/04 10:49:16;;;;;;;1.72;1.10;;;;;;;13.36;47.55;98895.43;1680534;83;20956;-67
2023/03/04 10:51:47;;;;;;;2.20;1.12;;;;;;;13.87;47.79;98900.47;1699971;82;21103;-70
2023/03/04 10:54:26;;;;;;;4.05;0.95;;;;;;;15.12;46.66;98889.19;1717432;82;21043;-66
2023/03/04 10:57:03;;;;;;;1.50;0.70;;;;;;;16.46;46.63;98900.20;1691506;83;21047;-66
2023/03/04 10:59:50;;;;;;;4.12;1.32;;;;;;;18.45;45.21;98882.52;1681007;83;21515;-66
2023/03/04 11:02:27;;;;;;;6.75;0.90;;;;;;;20.37;44.15;98882.98;1646900;85;21044;-71
2023/03/04 11:05:20;;;;;;;2.77;0.78;;;;;;;21.86;43.88;98880.27;1660006;85;21121;-71
2023/03/04 11:07:53;;;;;;;2.65;1.27;;;;;;;22.70;42.18;98882.22;1569930;89;21087;-66
2023/03/04 11:10:25;;;;;;;4.22;1.00;;;;;;;24.08;41.94;98862.50;1630560;84;21124;-70
2023/03/04 11:13:00;;;;;;;2.65;1.27;;;;;;;25.37;40.44;98885.30;1624610;86;21094;-65
2023/03/04 11:15:30;;;;;;;2.12;1.00;;;;;;;26.22;39.40;98871.67;1619955;86;21630;-68
2023/03/04 11:18:02;;;;;;;7.30;1.20;;;;;;;26.24;34.42;98884.36;1639951;86;21065;-71
2023/03/04 11:20:39;;;;;;;3.33;0.80;;;;;;;25.90;34.24;98885.06;1612887;86;21640;-71
2023/03/04 11:23:14;;;;;;;4.80;0.90;;;;;;;26.72;33.95;98894.36;1594585;88;21214;-69
2023/03/04 11:25:48;;;;;;;3.80;1.10;;;;;;;27.10;32.22;98889.42;1608386;87;21609;-69
2023/03/04 11:28:22;;;;;;;1.82;0.70;;;;;;;28.53;31.69;98861.13;1607577;87;21077;-69
2023/03/04 11:31:02;;;;;;;4.85;1.25;;;;;;;29.20;30.47;98870.66;1620571;86;21637;-67
2023/03/04 11:33:55;;;;;;;1.35;0.72;;;;;;;30.10;30.43;98878.61;1625183;86;21097;-62
2023/03/04 11:36:36;;;;;;;3.67;0.78;;;;;;;30.57;28.06;98890.88;1627129;86;21104;-70
2023/03/04 11:39:08;;;;;;;1.57;0.70;;;;;;;30.05;25.62;98893.27;1625293;86;21594;-69
2023/03/04 11:41:39;;;;;;;2.60;0.93;;;;;;;29.48;24.94;98878.91;1626993;86;21084;-70
2023/03/04 11:44:07;;;;;;;6.87;0.90;;;;;;;29.92;23.15;98893.36;1716838;80;20970;-70
2023/03/04 11:47:08;;;;;;;3.55;0.90;;;;;;;29.62;21.86;98895.27;1732364;81;21089;-68
2023/03/04 11:50:00;;;;;;;2.47;0.75;;;;;;;29.54;21.84;98906.27;1692430;84;20959;-70
2023/03/04 11:52:34;;;;;;;2.62;0.70;;;;;;;30.07;20.89;98898.42;1678530;84;21053;-66